sensor_id;sensor_type;location;lat;lon;timestamp;temperature;humidity
33476;DHT22;19814;48.224;11.422;2023-02-28T00:00:11;-1.10;98.40
33476;DHT22;19814;48.224;11.422;2023-02-28T00:02:38;-1.10;98.30
33476;DHT22;19814;48.224;11.422;2023-02-28T00:05:04;-1.10;98.20
33476;DHT22;19814;48.224;11.422;2023-02-28T00:07:30;-1.20;98.50
33476;DHT22;19814;48.224;11.422;2023-02-28T00:09:56;-1.20;98.30
33476;DHT22;19814;48.224;11.422;2023-02-28T00:12:22;-1.30;98.40
33476;DHT22;19814;48.224;11.422;2023-02-28T00:14:48;-1.30;98.50
33476;DHT22;19814;48.224;11.422;2023-02-28T00:17:13;-1.30;98.80
33476;DHT22;19814;48.224;11.422;2023-02-28T00:19:39;-1.20;98.50
33476;DHT22;19814;48.224;11.422;2023-02-28T00:22:04;-1.30;98.70
33476;DHT22;19814;48.224;11.422;2023-02-28T00:24:29;-1.20;98.50
33476;DHT22;19814;48.224;11.422;2023-02-28T00:26:55;-1.30;98.50
33476;DHT22;19814;48.224;11.422;2023-02-28T00:29:20;-1.30;98.80
33476;DHT22;19814;48.224;11.422;2023-02-28T00:31:46;-1.40;98.70
33476;DHT22;19814;48.224;11.422;2023-02-28T00:34:11;-1.50;99.10
33476;DHT22;19814;48.224;11.422;2023-02-28T00:36:37;-1.50;99.00
33476;DHT22;19814;48.224;11.422;2023-02-28T00:39:03;-1.40;99.00
33476;DHT22;19814;48.224;11.422;2023-02-28T00:41:28;-1.50;99.00
33476;DHT22;19814;48.224;11.422;2023-02-28T00:43:54;-1.50;99.30
33476;DHT22;19814;48.224;11.422;2023-02-28T00:46:19;-1.50;99.30
33476;DHT22;19814;48.224;11.422;2023-02-28T00:48:44;-1.50;99.20
33476;DHT22;19814;48.224;11.422;2023-02-28T00:51:10;-1.50;99.30
33476;DHT22;19814;48.224;11.422;2023-02-28T00:53:36;-1.50;99.20
33476;DHT22;19814;48.224;11.422;2023-02-28T00:56:01;-1.70;99.30
33476;DHT22;19814;48.224;11.422;2023-02-28T00:58:27;-1.70;99.60
33476;DHT22;19814;48.224;11.422;2023-02-28T01:00:52;-1.70;99.80
33476;DHT22;19814;48.224;11.422;2023-02-28T01:03:19;-1.70;99.70
33476;DHT22;19814;48.224;11.422;2023-02-28T01:05:45;-1.70;99.70
33476;DHT22;19814;48.224;11.422;2023-02-28T01:08:10;-1.70;99.60
33476;DHT22;19814;48.224;11.422;2023-02-28T01:10:36;-1.70;99.80
33476;DHT22;19814;48.224;11.422;2023-02-28T01:13:02;-1.70;99.70
33476;DHT22;19814;48.224;11.422;2023-02-28T01:15:28;-1.70;99.60
33476;DHT22;19814;48.224;11.422;2023-02-28T01:17:53;-1.80;99.70
33476;DHT22;19814;48.224;11.422;2023-02-28T01:20:19;-1.80;99.90
33476;DHT22;19814;48.224;11.422;2023-02-28T01:22:44;-1.80;99.90
33476;DHT22;19814;48.224;11.422;2023-02-28T01:25:10;-1.80;99.90
33476;DHT22;19814;48.224;11.422;2023-02-28T01:27:35;-1.90;99.90
33476;DHT22;19814;48.224;11.422;2023-02-28T01:30:01;-1.80;99.90
33476;DHT22;19814;48.224;11.422;2023-02-28T01:32:27;-1.80;99.90
33476;DHT22;19814;48.224;11.422;2023-02-28T01:34:52;-1.90;99.90
33476;DHT22;19814;48.224;11.422;2023-02-28T01:37:17;-1.90;99.90
33476;DHT22;19814;48.224;11.422;2023-02-28T01:39:43;-1.90;99.90
33476;DHT22;19814;48.224;11.422;2023-02-28T01:42:09;-1.90;99.90
33476;DHT22;19814;48.224;11.422;2023-02-28T01:47:18;-1.90;99.90
33476;DHT22;19814;48.224;11.422;2023-02-28T01:49:44;-1.90;99.90
33476;DHT22;19814;48.224;11.422;2023-02-28T01:52:10;-1.90;99.90
33476;DHT22;19814;48.224;11.422;2023-02-28T01:54:43;-1.90;99.90
33476;DHT22;19814;48.224;11.422;2023-02-28T01:57:11;-1.90;99.90
33476;DHT22;19814;48.224;11.422;2023-02-28T01:59:42;-1.90;99.90
33476;DHT22;19814;48.224;11.422;2023-02-28T02:02:12;-1.90;99.90
33476;DHT22;19814;48.224;11.422;2023-02-28T02:04:39;-1.90;99.90
33476;DHT22;19814;48.224;11.422;2023-02-28T02:07:05;-1.90;99.90
33476;DHT22;19814;48.224;11.422;2023-02-28T02:09:30;-1.90;99.90
33476;DHT22;19814;48.224;11.422;2023-02-28T02:11:56;-1.80;99.90
33476;DHT22;19814;48.224;11.422;2023-02-28T02:17:09;-1.90;99.90
33476;DHT22;19814;48.224;11.422;2023-02-28T02:33:23;-2.00;99.90
33476;DHT22;19814;48.224;11.422;2023-02-28T02:35:31;-2.00;99.90
33476;DHT22;19814;48.224;11.422;2023-02-28T02:40:30;-2.10;99.90
33476;DHT22;19814;48.224;11.422;2023-02-28T02:43:01;-2.10;99.90
33476;DHT22;19814;48.224;11.422;2023-02-28T02:45:30;-2.10;99.90
33476;DHT22;19814;48.224;11.422;2023-02-28T02:48:01;-2.10;99.90
33476;DHT22;19814;48.224;11.422;2023-02-28T02:50:29;-2.10;99.90
33476;DHT22;19814;48.224;11.422;2023-02-28T02:52:57;-2.10;99.90
33476;DHT22;19814;48.224;11.422;2023-02-28T02:55:25;-2.20;99.90
33476;DHT22;19814;48.224;11.422;2023-02-28T02:57:52;-2.20;99.90
33476;DHT22;19814;48.224;11.422;2023-02-28T03:00:20;-2.20;99.90
33476;DHT22;19814;48.224;11.422;2023-02-28T03:02:47;-2.20;99.90
33476;DHT22;19814;48.224;11.422;2023-02-28T03:05:16;-2.20;99.90
33476;DHT22;19814;48.224;11.422;2023-02-28T03:07:42;-2.20;99.90
33476;DHT22;19814;48.224;11.422;2023-02-28T03:13:00;-2.20;99.90
33476;DHT22;19814;48.224;11.422;2023-02-28T03:15:32;-2.20;99.90
33476;DHT22;19814;48.224;11.422;2023-02-28T03:18:02;-2.30;99.90
33476;DHT22;19814;48.224;11.422;2023-02-28T03:23:21;-2.30;99.90
33476;DHT22;19814;48.224;11.422;2023-02-28T03:28:45;-2.30;99.90
33476;DHT22;19814;48.224;11.422;2023-02-28T03:31:21;-2.30;99.90
33476;DHT22;19814;48.224;11.422;2023-02-28T03:33:51;-2.20;99.90
33476;DHT22;19814;48.224;11.422;2023-02-28T03:36:23;-2.20;99.90
33476;DHT22;19814;48.224;11.422;2023-02-28T03:38:57;-2.10;99.90
33476;DHT22;19814;48.224;11.422;2023-02-28T03:41:38;-2.00;99.90
33476;DHT22;19814;48.224;11.422;2023-02-28T03:44:06;-2.00;99.90
33476;DHT22;19814;48.224;11.422;2023-02-28T03:46:36;-1.90;99.90
33476;DHT22;19814;48.224;11.422;2023-02-28T03:49:12;-1.90;99.90
33476;DHT22;19814;48.224;11.422;2023-02-28T03:51:40;-1.90;99.90
33476;DHT22;19814;48.224;11.422;2023-02-28T03:54:07;-1.90;99.90
33476;DHT22;19814;48.224;11.422;2023-02-28T03:56:37;-1.80;99.90
33476;DHT22;19814;48.224;11.422;2023-02-28T03:59:06;-1.80;99.90
33476;DHT22;19814;48.224;11.422;2023-02-28T04:01:39;-1.80;99.90
33476;DHT22;19814;48.224;11.422;2023-02-28T04:04:06;-1.80;99.90
33476;DHT22;19814;48.224;11.422;2023-02-28T04:06:33;-1.80;99.90
33476;DHT22;19814;48.224;11.422;2023-02-28T04:08:58;-1.70;99.90
33476;DHT22;19814;48.224;11.422;2023-02-28T04:11:31;-1.70;99.90
33476;DHT22;19814;48.224;11.422;2023-02-28T04:13:59;-1.70;99.90
33476;DHT22;19814;48.224;11.422;2023-02-28T04:16:25;-1.80;99.90
33476;DHT22;19814;48.224;11.422;2023-02-28T04:18:50;-1.80;99.90
33476;DHT22;19814;48.224;11.422;2023-02-28T04:21:16;-1.80;99.90
33476;DHT22;19814;48.224;11.422;2023-02-28T04:23:46;-1.70;99.90
33476;DHT22;19814;48.224;11.422;2023-02-28T04:26:11;-1.60;99.90
33476;DHT22;19814;48.224;11.422;2023-02-28T04:28:37;-1.60;99.90
33476;DHT22;19814;48.224;11.422;2023-02-28T04:31:03;-1.50;99.90
33476;DHT22;19814;48.224;11.422;2023-02-28T04:33:30;-1.50;99.90
33476;DHT22;19814;48.224;11.422;2023-02-28T04:35:59;-1.50;99.90
33476;DHT22;19814;48.224;11.422;2023-02-28T04:38:25;-1.50;99.90
33476;DHT22;19814;48.224;11.422;2023-02-28T04:40:50;-1.50;99.90
33476;DHT22;19814;48.224;11.422;2023-02-28T04:43:16;-1.50;99.90
33476;DHT22;19814;48.224;11.422;2023-02-28T04:45:41;-1.40;99.90
33476;DHT22;19814;48.224;11.422;2023-02-28T04:48:06;-1.40;99.90
33476;DHT22;19814;48.224;11.422;2023-02-28T04:50:32;-1.40;99.90
33476;DHT22;19814;48.224;11.422;2023-02-28T04:52:58;-1.40;99.90
33476;DHT22;19814;48.224;11.422;2023-02-28T04:55:23;-1.30;99.90
33476;DHT22;19814;48.224;11.422;2023-02-28T04:57:49;-1.30;99.90
33476;DHT22;19814;48.224;11.422;2023-02-28T05:00:14;-1.30;99.90
33476;DHT22;19814;48.224;11.422;2023-02-28T05:02:42;-1.40;99.90
33476;DHT22;19814;48.224;11.422;2023-02-28T05:05:07;-1.40;99.90
33476;DHT22;19814;48.224;11.422;2023-02-28T05:07:32;-1.40;99.90
33476;DHT22;19814;48.224;11.422;2023-02-28T05:09:58;-1.30;99.90
33476;DHT22;19814;48.224;11.422;2023-02-28T05:12:23;-1.30;99.90
33476;DHT22;19814;48.224;11.422;2023-02-28T05:14:49;-1.30;99.90
33476;DHT22;19814;48.224;11.422;2023-02-28T05:17:14;-1.40;99.90
33476;DHT22;19814;48.224;11.422;2023-02-28T05:19:40;-1.40;99.90
33476;DHT22;19814;48.224;11.422;2023-02-28T05:22:10;-1.40;99.90
33476;DHT22;19814;48.224;11.422;2023-02-28T05:24:37;-1.40;99.90
33476;DHT22;19814;48.224;11.422;2023-02-28T05:27:03;-1.40;99.90
33476;DHT22;19814;48.224;11.422;2023-02-28T05:29:28;-1.40;99.90
33476;DHT22;19814;48.224;11.422;2023-02-28T05:31:54;-1.40;99.90
33476;DHT22;19814;48.224;11.422;2023-02-28T05:34:19;-1.40;99.90
33476;DHT22;19814;48.224;11.422;2023-02-28T05:36:45;-1.40;99.90
33476;DHT22;19814;48.224;11.422;2023-02-28T05:39:10;-1.30;99.90
33476;DHT22;19814;48.224;11.422;2023-02-28T05:41:38;-1.30;99.90
33476;DHT22;19814;48.224;11.422;2023-02-28T05:44:04;-1.40;99.90
33476;DHT22;19814;48.224;11.422;2023-02-28T05:46:29;-1.30;99.90
33476;DHT22;19814;48.224;11.422;2023-02-28T05:48:54;-1.30;99.90
33476;DHT22;19814;48.224;11.422;2023-02-28T05:51:21;-1.20;99.90
33476;DHT22;19814;48.224;11.422;2023-02-28T05:53:47;-1.20;99.90
33476;DHT22;19814;48.224;11.422;2023-02-28T05:56:14;-1.40;99.90
33476;DHT22;19814;48.224;11.422;2023-02-28T05:58:39;-1.40;99.90
33476;DHT22;19814;48.224;11.422;2023-02-28T06:03:46;-1.20;99.90
33476;DHT22;19814;48.224;11.422;2023-02-28T06:06:11;-1.30;99.90
33476;DHT22;19814;48.224;11.422;2023-02-28T06:08:36;-1.30;99.90
33476;DHT22;19814;48.224;11.422;2023-02-28T06:11:03;-1.30;99.90
33476;DHT22;19814;48.224;11.422;2023-02-28T06:13:28;-1.30;99.90
33476;DHT22;19814;48.224;11.422;2023-02-28T06:15:54;-1.30;99.90
33476;DHT22;19814;48.224;11.422;2023-02-28T06:18:19;-1.30;99.90
33476;DHT22;19814;48.224;11.422;2023-02-28T06:20:44;-1.30;99.90
33476;DHT22;19814;48.224;11.422;2023-02-28T06:23:17;-1.40;99.90
33476;DHT22;19814;48.224;11.422;2023-02-28T06:25:44;-1.30;99.90
33476;DHT22;19814;48.224;11.422;2023-02-28T06:28:10;-1.40;99.90
33476;DHT22;19814;48.224;11.422;2023-02-28T06:30:36;-1.30;99.90
33476;DHT22;19814;48.224;11.422;2023-02-28T06:33:02;-1.30;99.90
33476;DHT22;19814;48.224;11.422;2023-02-28T06:35:27;-1.20;99.90
33476;DHT22;19814;48.224;11.422;2023-02-28T06:37:53;-1.10;99.90
33476;DHT22;19814;48.224;11.422;2023-02-28T06:40:18;-1.10;99.90
33476;DHT22;19814;48.224;11.422;2023-02-28T06:42:44;-1.10;99.90
33476;DHT22;19814;48.224;11.422;2023-02-28T06:45:09;-1.10;99.90
33476;DHT22;19814;48.224;11.422;2023-02-28T06:47:36;-1.10;99.90
33476;DHT22;19814;48.224;11.422;2023-02-28T06:50:02;-1.00;99.90
33476;DHT22;19814;48.224;11.422;2023-02-28T06:52:27;-1.00;99.90
33476;DHT22;19814;48.224;11.422;2023-02-28T06:54:53;-1.00;99.90
33476;DHT22;19814;48.224;11.422;2023-02-28T06:57:30;-1.00;99.90
33476;DHT22;19814;48.224;11.422;2023-02-28T06:59:59;-1.00;99.90
33476;DHT22;19814;48.224;11.422;2023-02-28T07:02:25;-1.00;99.90
33476;DHT22;19814;48.224;11.422;2023-02-28T07:04:51;-0.90;99.90
33476;DHT22;19814;48.224;11.422;2023-02-28T07:07:16;-0.90;99.90
33476;DHT22;19814;48.224;11.422;2023-02-28T07:09:42;-0.90;99.90
33476;DHT22;19814;48.224;11.422;2023-02-28T07:12:07;-1.00;99.90
33476;DHT22;19814;48.224;11.422;2023-02-28T07:14:33;-0.90;99.90
33476;DHT22;19814;48.224;11.422;2023-02-28T07:16:58;-1.00;99.90
33476;DHT22;19814;48.224;11.422;2023-02-28T07:19:24;-0.90;99.90
33476;DHT22;19814;48.224;11.422;2023-02-28T07:21:49;-0.90;99.90
33476;DHT22;19814;48.224;11.422;2023-02-28T07:24:14;-0.90;99.90
33476;DHT22;19814;48.224;11.422;2023-02-28T07:26:41;-1.00;99.90
33476;DHT22;19814;48.224;11.422;2023-02-28T07:29:06;-1.00;99.90
33476;DHT22;19814;48.224;11.422;2023-02-28T07:31:32;-1.00;99.90
33476;DHT22;19814;48.224;11.422;2023-02-28T07:33:57;-1.00;99.90
33476;DHT22;19814;48.224;11.422;2023-02-28T07:36:23;-1.10;99.90
33476;DHT22;19814;48.224;11.422;2023-02-28T07:38:49;-1.00;99.90
33476;DHT22;19814;48.224;11.422;2023-02-28T07:41:15;-1.00;99.90
33476;DHT22;19814;48.224;11.422;2023-02-28T07:43:41;-0.90;99.90
33476;DHT22;19814;48.224;11.422;2023-02-28T07:46:08;-1.00;99.90
33476;DHT22;19814;48.224;11.422;2023-02-28T07:48:33;-0.90;99.90
33476;DHT22;19814;48.224;11.422;2023-02-28T07:50:59;-0.90;99.90
33476;DHT22;19814;48.224;11.422;2023-02-28T07:53:25;-0.90;99.90
33476;DHT22;19814;48.224;11.422;2023-02-28T07:55:51;-0.80;99.90
33476;DHT22;19814;48.224;11.422;2023-02-28T07:58:16;-0.80;99.90
33476;DHT22;19814;48.224;11.422;2023-02-28T08:00:41;-0.90;99.90
33476;DHT22;19814;48.224;11.422;2023-02-28T08:03:09;-0.80;99.90
33476;DHT22;19814;48.224;11.422;2023-02-28T08:05:38;-0.80;99.90
33476;DHT22;19814;48.224;11.422;2023-02-28T08:08:03;-0.80;99.90
33476;DHT22;19814;48.224;11.422;2023-02-28T08:10:29;-0.70;99.90
33476;DHT22;19814;48.224;11.422;2023-02-28T08:12:54;-0.70;99.90
33476;DHT22;19814;48.224;11.422;2023-02-28T08:15:19;-0.80;99.90
33476;DHT22;19814;48.224;11.422;2023-02-28T08:17:45;-0.80;99.90
33476;DHT22;19814;48.224;11.422;2023-02-28T08:20:10;-0.80;99.90
33476;DHT22;19814;48.224;11.422;2023-02-28T08:22:36;-0.80;99.90
33476;DHT22;19814;48.224;11.422;2023-02-28T08:25:01;-0.80;99.90
33476;DHT22;19814;48.224;11.422;2023-02-28T08:27:27;-0.80;99.90
33476;DHT22;19814;48.224;11.422;2023-02-28T08:29:52;-0.90;99.90
33476;DHT22;19814;48.224;11.422;2023-02-28T08:32:18;-0.90;99.90
33476;DHT22;19814;48.224;11.422;2023-02-28T08:34:43;-0.80;99.90
33476;DHT22;19814;48.224;11.422;2023-02-28T08:37:09;-0.80;99.90
33476;DHT22;19814;48.224;11.422;2023-02-28T08:39:35;-0.70;99.90
33476;DHT22;19814;48.224;11.422;2023-02-28T08:42:01;-0.60;99.90
33476;DHT22;19814;48.224;11.422;2023-02-28T08:44:27;-0.50;99.90
33476;DHT22;19814;48.224;11.422;2023-02-28T08:46:53;-0.40;99.90
33476;DHT22;19814;48.224;11.422;2023-02-28T08:49:18;-0.30;99.90
33476;DHT22;19814;48.224;11.422;2023-02-28T08:51:44;-0.30;99.90
33476;DHT22;19814;48.224;11.422;2023-02-28T08:54:09;-0.20;99.90
33476;DHT22;19814;48.224;11.422;2023-02-28T08:56:37;-0.20;99.90
33476;DHT22;19814;48.224;11.422;2023-02-28T08:59:03;-0.20;99.80
33476;DHT22;19814;48.224;11.422;2023-02-28T09:01:29;-0.30;99.90
33476;DHT22;19814;48.224;11.422;2023-02-28T09:03:55;-0.40;99.90
33476;DHT22;19814;48.224;11.422;2023-02-28T09:06:21;-0.30;99.80
33476;DHT22;19814;48.224;11.422;2023-02-28T09:08:47;-0.30;99.90
33476;DHT22;19814;48.224;11.422;2023-02-28T09:11:13;-0.20;99.90
33476;DHT22;19814;48.224;11.422;2023-02-28T09:13:39;-0.30;99.90
33476;DHT22;19814;48.224;11.422;2023-02-28T09:16:05;-0.20;99.90
33476;DHT22;19814;48.224;11.422;2023-02-28T09:18:31;-0.10;99.90
33476;DHT22;19814;48.224;11.422;2023-02-28T09:20:56;0.00;99.70
33476;DHT22;19814;48.224;11.422;2023-02-28T09:23:23;0.10;99.90
33476;DHT22;19814;48.224;11.422;2023-02-28T09:25:53;0.20;99.50
33476;DHT22;19814;48.224;11.422;2023-02-28T09:28:19;0.40;99.80
33476;DHT22;19814;48.224;11.422;2023-02-28T09:30:45;0.40;99.30
33476;DHT22;19814;48.224;11.422;2023-02-28T09:33:11;0.30;99.50
33476;DHT22;19814;48.224;11.422;2023-02-28T09:35:37;0.20;99.30
33476;DHT22;19814;48.224;11.422;2023-02-28T09:38:03;0.40;99.80
33476;DHT22;19814;48.224;11.422;2023-02-28T09:40:29;0.50;98.50
33476;DHT22;19814;48.224;11.422;2023-02-28T09:42:55;0.60;98.40
33476;DHT22;19814;48.224;11.422;2023-02-28T09:45:24;0.60;98.10
33476;DHT22;19814;48.224;11.422;2023-02-28T09:47:51;0.60;98.50
33476;DHT22;19814;48.224;11.422;2023-02-28T09:50:20;0.90;98.50
33476;DHT22;19814;48.224;11.422;2023-02-28T09:52:46;0.90;98.30
33476;DHT22;19814;48.224;11.422;2023-02-28T09:55:31;1.30;98.10
33476;DHT22;19814;48.224;11.422;2023-02-28T09:57:58;1.50;97.70
33476;DHT22;19814;48.224;11.422;2023-02-28T10:00:36;1.80;97.10
33476;DHT22;19814;48.224;11.422;2023-02-28T10:06:11;1.90;96.60
33476;DHT22;19814;48.224;11.422;2023-02-28T10:08:29;1.90;96.60
33476;DHT22;19814;48.224;11.422;2023-02-28T10:11:03;1.90;96.10
33476;DHT22;19814;48.224;11.422;2023-02-28T10:13:32;2.30;96.30
33476;DHT22;19814;48.224;11.422;2023-02-28T10:16:01;2.70;95.60
33476;DHT22;19814;48.224;11.422;2023-02-28T10:18:30;2.90;95.00
33476;DHT22;19814;48.224;11.422;2023-02-28T10:20:56;3.00;94.70
33476;DHT22;19814;48.224;11.422;2023-02-28T10:23:28;3.30;94.40
33476;DHT22;19814;48.224;11.422;2023-02-28T10:25:58;3.60;93.50
33476;DHT22;19814;48.224;11.422;2023-02-28T10:28:24;4.20;92.90
33476;DHT22;19814;48.224;11.422;2023-02-28T10:30:51;4.80;92.10
33476;DHT22;19814;48.224;11.422;2023-02-28T10:33:19;5.50;91.30
33476;DHT22;19814;48.224;11.422;2023-02-28T10:35:45;6.20;90.20
33476;DHT22;19814;48.224;11.422;2023-02-28T10:38:15;7.00;88.00
33476;DHT22;19814;48.224;11.422;2023-02-28T10:40:41;7.50;84.00
33476;DHT22;19814;48.224;11.422;2023-02-28T10:43:18;8.00;81.20
33476;DHT22;19814;48.224;11.422;2023-02-28T10:55:40;9.20;77.10
33476;DHT22;19814;48.224;11.422;2023-02-28T10:58:18;8.30;76.20
33476;DHT22;19814;48.224;11.422;2023-02-28T11:00:45;7.40;78.50
33476;DHT22;19814;48.224;11.422;2023-02-28T11:05:49;7.80;80.50
33476;DHT22;19814;48.224;11.422;2023-02-28T11:08:17;7.50;79.00
33476;DHT22;19814;48.224;11.422;2023-02-28T11:10:47;6.80;82.30
33476;DHT22;19814;48.224;11.422;2023-02-28T11:13:17;6.00;81.60
33476;DHT22;19814;48.224;11.422;2023-02-28T11:15:45;6.70;83.10
33476;DHT22;19814;48.224;11.422;2023-02-28T11:20:59;9.50;75.40
33476;DHT22;19814;48.224;11.422;2023-02-28T11:23:26;10.50;73.40
33476;DHT22;19814;48.224;11.422;2023-02-28T11:25:54;10.60;71.60
33476;DHT22;19814;48.224;11.422;2023-02-28T11:28:32;11.70;68.70
33476;DHT22;19814;48.224;11.422;2023-02-28T11:36:21;12.30;65.00
33476;DHT22;19814;48.224;11.422;2023-02-28T11:38:50;12.80;64.30
33476;DHT22;19814;48.224;11.422;2023-02-28T11:41:22;11.00;64.30
33476;DHT22;19814;48.224;11.422;2023-02-28T11:56:46;7.80;73.50
33476;DHT22;19814;48.224;11.422;2023-02-28T12:07:29;13.40;61.80
33476;DHT22;19814;48.224;11.422;2023-02-28T12:12:29;14.30;57.20
33476;DHT22;19814;48.224;11.422;2023-02-28T12:17:43;12.10;59.10
33476;DHT22;19814;48.224;11.422;2023-02-28T12:27:47;9.50;64.70
33476;DHT22;19814;48.224;11.422;2023-02-28T12:30:17;9.70;65.70
33476;DHT22;19814;48.224;11.422;2023-02-28T12:32:45;9.60;65.10
33476;DHT22;19814;48.224;11.422;2023-02-28T12:35:13;9.20;66.40
33476;DHT22;19814;48.224;11.422;2023-02-28T12:37:55;9.40;65.10
33476;DHT22;19814;48.224;11.422;2023-02-28T12:40:23;8.70;65.60
33476;DHT22;19814;48.224;11.422;2023-02-28T12:42:49;7.80;68.50
33476;DHT22;19814;48.224;11.422;2023-02-28T12:46:02;7.50;69.20
33476;DHT22;19814;48.224;11.422;2023-02-28T12:48:04;7.70;71.50
33476;DHT22;19814;48.224;11.422;2023-02-28T12:50:30;8.20;69.70
33476;DHT22;19814;48.224;11.422;2023-02-28T12:58:08;7.90;69.80
33476;DHT22;19814;48.224;11.422;2023-02-28T13:00:36;7.60;70.10
33476;DHT22;19814;48.224;11.422;2023-02-28T13:08:13;7.30;72.30
33476;DHT22;19814;48.224;11.422;2023-02-28T13:10:44;6.90;72.00
33476;DHT22;19814;48.224;11.422;2023-02-28T13:13:18;6.70;74.70
33476;DHT22;19814;48.224;11.422;2023-02-28T13:16:04;6.50;73.90
33476;DHT22;19814;48.224;11.422;2023-02-28T13:20:55;6.50;73.20
33476;DHT22;19814;48.224;11.422;2023-02-28T13:23:41;6.60;74.10
33476;DHT22;19814;48.224;11.422;2023-02-28T13:34:20;6.10;77.40
33476;DHT22;19814;48.224;11.422;2023-02-28T13:36:46;5.90;76.80
33476;DHT22;19814;48.224;11.422;2023-02-28T13:41:56;5.90;77.80
33476;DHT22;19814;48.224;11.422;2023-02-28T13:44:22;5.90;78.90
33476;DHT22;19814;48.224;11.422;2023-02-28T13:52:06;5.90;79.00
33476;DHT22;19814;48.224;11.422;2023-02-28T14:00:02;5.80;80.00
33476;DHT22;19814;48.224;11.422;2023-02-28T14:07:38;5.60;80.20
33476;DHT22;19814;48.224;11.422;2023-02-28T14:10:06;5.70;79.30
33476;DHT22;19814;48.224;11.422;2023-02-28T14:18:14;5.80;80.90
33476;DHT22;19814;48.224;11.422;2023-02-28T14:20:40;5.80;79.20
33476;DHT22;19814;48.224;11.422;2023-02-28T14:23:10;5.70;79.70
33476;DHT22;19814;48.224;11.422;2023-02-28T14:25:45;5.50;80.30
33476;DHT22;19814;48.224;11.422;2023-02-28T14:35:54;4.80;83.10
33476;DHT22;19814;48.224;11.422;2023-02-28T14:38:31;4.80;82.20
33476;DHT22;19814;48.224;11.422;2023-02-28T14:40:57;4.90;83.90
33476;DHT22;19814;48.224;11.422;2023-02-28T14:43:27;4.90;81.80
33476;DHT22;19814;48.224;11.422;2023-02-28T14:45:54;5.00;83.30
33476;DHT22;19814;48.224;11.422;2023-02-28T14:48:21;5.10;83.20
33476;DHT22;19814;48.224;11.422;2023-02-28T14:50:48;5.10;82.40
33476;DHT22;19814;48.224;11.422;2023-02-28T14:53:15;5.10;81.60
33476;DHT22;19814;48.224;11.422;2023-02-28T14:55:44;5.00;82.80
33476;DHT22;19814;48.224;11.422;2023-02-28T14:58:21;5.10;82.30
33476;DHT22;19814;48.224;11.422;2023-02-28T15:00:47;4.90;83.10
33476;DHT22;19814;48.224;11.422;2023-02-28T15:03:23;4.80;83.50
33476;DHT22;19814;48.224;11.422;2023-02-28T15:05:54;4.80;85.80
33476;DHT22;19814;48.224;11.422;2023-02-28T15:08:19;4.70;85.20
33476;DHT22;19814;48.224;11.422;2023-02-28T15:10:49;4.60;84.40
33476;DHT22;19814;48.224;11.422;2023-02-28T15:13:15;4.50;85.50
33476;DHT22;19814;48.224;11.422;2023-02-28T15:16:15;4.70;85.40
33476;DHT22;19814;48.224;11.422;2023-02-28T15:21:11;4.70;84.50
33476;DHT22;19814;48.224;11.422;2023-02-28T15:23:37;4.70;85.10
33476;DHT22;19814;48.224;11.422;2023-02-28T15:26:03;4.70;84.90
33476;DHT22;19814;48.224;11.422;2023-02-28T15:28:28;4.60;83.60
33476;DHT22;19814;48.224;11.422;2023-02-28T15:30:58;4.50;84.10
33476;DHT22;19814;48.224;11.422;2023-02-28T15:33:26;4.40;85.20
33476;DHT22;19814;48.224;11.422;2023-02-28T15:35:51;4.40;85.20
33476;DHT22;19814;48.224;11.422;2023-02-28T15:38:28;4.40;86.20
33476;DHT22;19814;48.224;11.422;2023-02-28T15:40:56;4.30;86.00
33476;DHT22;19814;48.224;11.422;2023-02-28T15:43:29;4.20;87.00
33476;DHT22;19814;48.224;11.422;2023-02-28T15:45:56;4.20;87.00
33476;DHT22;19814;48.224;11.422;2023-02-28T15:50:51;4.10;86.70
33476;DHT22;19814;48.224;11.422;2023-02-28T15:53:19;4.10;87.80
33476;DHT22;19814;48.224;11.422;2023-02-28T15:55:51;4.00;88.20
33476;DHT22;19814;48.224;11.422;2023-02-28T15:58:17;3.90;87.70
33476;DHT22;19814;48.224;11.422;2023-02-28T16:00:44;3.90;87.30
33476;DHT22;19814;48.224;11.422;2023-02-28T16:03:27;3.90;87.10
33476;DHT22;19814;48.224;11.422;2023-02-28T16:06:21;3.80;87.40
33476;DHT22;19814;48.224;11.422;2023-02-28T16:08:38;3.80;88.00
33476;DHT22;19814;48.224;11.422;2023-02-28T16:11:04;3.70;88.80
33476;DHT22;19814;48.224;11.422;2023-02-28T16:13:29;3.70;89.00
33476;DHT22;19814;48.224;11.422;2023-02-28T16:15:55;3.70;88.50
33476;DHT22;19814;48.224;11.422;2023-02-28T16:18:20;3.70;89.30
33476;DHT22;19814;48.224;11.422;2023-02-28T16:20:46;3.70;89.80
33476;DHT22;19814;48.224;11.422;2023-02-28T16:23:11;3.60;89.90
33476;DHT22;19814;48.224;11.422;2023-02-28T16:25:38;3.70;90.10
33476;DHT22;19814;48.224;11.422;2023-02-28T16:28:06;3.60;89.90
33476;DHT22;19814;48.224;11.422;2023-02-28T16:30:33;3.60;90.40
33476;DHT22;19814;48.224;11.422;2023-02-28T16:32:59;3.50;90.50
33476;DHT22;19814;48.224;11.422;2023-02-28T16:35:24;3.50;90.40
33476;DHT22;19814;48.224;11.422;2023-02-28T16:37:50;3.50;90.40
33476;DHT22;19814;48.224;11.422;2023-02-28T16:40:17;3.40;90.90
33476;DHT22;19814;48.224;11.422;2023-02-28T16:42:43;3.40;90.80
33476;DHT22;19814;48.224;11.422;2023-02-28T16:45:20;3.30;90.80
33476;DHT22;19814;48.224;11.422;2023-02-28T16:47:47;3.30;90.90
33476;DHT22;19814;48.224;11.422;2023-02-28T16:50:19;3.30;90.70
33476;DHT22;19814;48.224;11.422;2023-02-28T16:52:45;3.20;91.20
33476;DHT22;19814;48.224;11.422;2023-02-28T16:55:11;3.10;90.80
33476;DHT22;19814;48.224;11.422;2023-02-28T16:57:37;3.10;91.30
33476;DHT22;19814;48.224;11.422;2023-02-28T17:00:04;3.10;91.60
33476;DHT22;19814;48.224;11.422;2023-02-28T17:02:33;3.10;91.80
33476;DHT22;19814;48.224;11.422;2023-02-28T17:04:58;3.00;91.90
33476;DHT22;19814;48.224;11.422;2023-02-28T17:07:24;3.00;91.90
33476;DHT22;19814;48.224;11.422;2023-02-28T17:09:49;3.00;91.80
33476;DHT22;19814;48.224;11.422;2023-02-28T17:12:15;3.00;91.90
33476;DHT22;19814;48.224;11.422;2023-02-28T17:14:40;3.00;92.10
33476;DHT22;19814;48.224;11.422;2023-02-28T17:17:06;2.90;92.10
33476;DHT22;19814;48.224;11.422;2023-02-28T17:19:31;2.90;92.20
33476;DHT22;19814;48.224;11.422;2023-02-28T17:21:58;2.80;92.70
33476;DHT22;19814;48.224;11.422;2023-02-28T17:24:24;2.80;92.80
33476;DHT22;19814;48.224;11.422;2023-02-28T17:26:49;2.80;93.00
33476;DHT22;19814;48.224;11.422;2023-02-28T17:29:16;2.70;93.00
33476;DHT22;19814;48.224;11.422;2023-02-28T17:31:42;2.70;93.20
33476;DHT22;19814;48.224;11.422;2023-02-28T17:34:07;2.60;93.40
33476;DHT22;19814;48.224;11.422;2023-02-28T17:36:33;2.60;93.70
33476;DHT22;19814;48.224;11.422;2023-02-28T17:38:59;2.60;93.70
33476;DHT22;19814;48.224;11.422;2023-02-28T17:41:24;2.50;94.00
33476;DHT22;19814;48.224;11.422;2023-02-28T17:43:51;2.50;94.00
33476;DHT22;19814;48.224;11.422;2023-02-28T17:46:18;2.40;94.00
33476;DHT22;19814;48.224;11.422;2023-02-28T17:48:48;2.50;94.40
33476;DHT22;19814;48.224;11.422;2023-02-28T17:51:14;2.50;94.40